sensor_id;sensor_type;location;lat;lon;timestamp;pressure;altitude;pressure_sealevel;temperature;humidity
64292;BME280;50628;51.008;13.658;2024-01-10T00:01:03;101337.09;;;-10.49;100.00
64292;BME280;50628;51.008;13.658;2024-01-10T00:06:06;101336.47;;;-10.41;100.00
64292;BME280;50628;51.008;13.658;2024-01-10T00:11:08;101334.16;;;-10.35;100.00
64292;BME280;50628;51.008;13.658;2024-01-10T00:16:13;101322.38;;;-10.36;100.00
64292;BME280;50628;51.008;13.658;2024-01-10T00:21:15;101319.91;;;-10.35;100.00
64292;BME280;50628;51.008;13.658;2024-01-10T00:26:17;101314.31;;;-10.25;100.00
64292;BME280;50628;51.008;13.658;2024-01-10T00:31:20;101320.00;;;-10.32;100.00
64292;BME280;50628;51.008;13.658;2024-01-10T00:36:22;101324.19;;;-10.59;100.00
64292;BME280;50628;51.008;13.658;2024-01-10T00:41:23;101321.91;;;-10.79;100.00
64292;BME280;50628;51.008;13.658;2024-01-10T00:46:27;101318.03;;;-10.69;100.00
64292;BME280;50628;51.008;13.658;2024-01-10T00:51:29;101323.72;;;-10.75;100.00
64292;BME280;50628;51.008;13.658;2024-01-10T00:56:30;101313.22;;;-10.89;100.00
64292;BME280;50628;51.008;13.658;2024-01-10T01:01:34;101318.25;;;-11.14;100.00
64292;BME280;50628;51.008;13.658;2024-01-10T01:06:35;101317.16;;;-10.97;100.00
64292;BME280;50628;51.008;13.658;2024-01-10T01:11:37;101309.72;;;-10.67;100.00
64292;BME280;50628;51.008;13.658;2024-01-10T01:16:40;101303.22;;;-10.60;100.00
64292;BME280;50628;51.008;13.658;2024-01-10T01:21:43;101321.63;;;-10.61;100.00
64292;BME280;50628;51.008;13.658;2024-01-10T01:26:44;101318.47;;;-10.55;100.00
64292;BME280;50628;51.008;13.658;2024-01-10T01:31:48;101310.84;;;-10.84;100.00
64292;BME280;50628;51.008;13.658;2024-01-10T01:36:50;101312.81;;;-10.75;100.00
64292;BME280;50628;51.008;13.658;2024-01-10T01:41:52;101314.81;;;-10.65;100.00
64292;BME280;50628;51.008;13.658;2024-01-10T01:46:55;101312.19;;;-10.68;100.00
64292;BME280;50628;51.008;13.658;2024-01-10T01:51:57;101301.41;;;-10.64;100.00
64292;BME280;50628;51.008;13.658;2024-01-10T01:56:59;101305.53;;;-10.66;100.00
64292;BME280;50628;51.008;13.658;2024-01-10T02:02:03;101305.28;;;-10.74;100.00
64292;BME280;50628;51.008;13.658;2024-01-10T02:07:06;101301.97;;;-11.25;100.00
64292;BME280;50628;51.008;13.658;2024-01-10T02:12:07;101298.63;;;-11.26;100.00
64292;BME280;50628;51.008;13.658;2024-01-10T02:17:11;101303.28;;;-11.11;100.00
64292;BME280;50628;51.008;13.658;2024-01-10T02:22:13;101295.41;;;-10.95;100.00
64292;BME280;50628;51.008;13.658;2024-01-10T02:27:16;101291.97;;;-10.98;100.00
64292;BME280;50628;51.008;13.658;2024-01-10T02:32:18;101289.41;;;-11.00;100.00
64292;BME280;50628;51.008;13.658;2024-01-10T02:37:19;101302.91;;;-10.96;100.00
64292;BME280;50628;51.008;13.658;2024-01-10T02:42:23;101298.88;;;-11.18;100.00
64292;BME280;50628;51.008;13.658;2024-01-10T02:47:25;101288.56;;;-10.99;100.00
64292;BME280;50628;51.008;13.658;2024-01-10T02:52:26;101295.41;;;-10.95;100.00
64292;BME280;50628;51.008;13.658;2024-01-10T02:57:30;101286.63;;;-11.07;100.00
64292;BME280;50628;51.008;13.658;2024-01-10T03:02:31;101291.75;;;-11.04;100.00
64292;BME280;50628;51.008;13.658;2024-01-10T03:07:33;101292.91;;;-10.95;100.00
64292;BME280;50628;51.008;13.658;2024-01-10T03:12:36;101286.97;;;-10.97;100.00
64292;BME280;50628;51.008;13.658;2024-01-10T03:17:38;101282.38;;;-11.10;100.00
64292;BME280;50628;51.008;13.658;2024-01-10T03:22:40;101280.69;;;-11.09;100.00
64292;BME280;50628;51.008;13.658;2024-01-10T03:27:44;101285.06;;;-11.04;100.00
64292;BME280;50628;51.008;13.658;2024-01-10T03:32:45;101282.72;;;-11.25;100.00
64292;BME280;50628;51.008;13.658;2024-01-10T03:37:47;101269.41;;;-11.22;100.00
64292;BME280;50628;51.008;13.658;2024-01-10T03:42:50;101271.25;;;-11.17;100.00
64292;BME280;50628;51.008;13.658;2024-01-10T03:47:52;101264.31;;;-11.24;100.00
64292;BME280;50628;51.008;13.658;2024-01-10T03:52:54;101253.50;;;-11.21;100.00
64292;BME280;50628;51.008;13.658;2024-01-10T03:57:57;101255.91;;;-11.26;100.00
64292;BME280;50628;51.008;13.658;2024-01-10T04:02:59;101251.66;;;-11.27;100.00
64292;BME280;50628;51.008;13.658;2024-01-10T04:08:01;101248.75;;;-11.14;100.00
64292;BME280;50628;51.008;13.658;2024-01-10T04:13:05;101247.44;;;-11.28;100.00
64292;BME280;50628;51.008;13.658;2024-01-10T04:18:07;101254.25;;;-11.24;100.00
64292;BME280;50628;51.008;13.658;2024-01-10T04:23:09;101251.03;;;-11.20;100.00
64292;BME280;50628;51.008;13.658;2024-01-10T04:28:12;101251.97;;;-11.18;100.00
64292;BME280;50628;51.008;13.658;2024-01-10T04:33:14;101247.94;;;-11.13;100.00
64292;BME280;50628;51.008;13.658;2024-01-10T04:38:16;101253.25;;;-11.03;100.00
64292;BME280;50628;51.008;13.658;2024-01-10T04:43:20;101246.88;;;-11.19;100.00
64292;BME280;50628;51.008;13.658;2024-01-10T04:48:22;101251.00;;;-11.21;100.00
64292;BME280;50628;51.008;13.658;2024-01-10T04:53:24;101253.47;;;-11.48;100.00
64292;BME280;50628;51.008;13.658;2024-01-10T04:58:27;101255.84;;;-11.27;100.00
64292;BME280;50628;51.008;13.658;2024-01-10T05:03:30;101251.66;;;-11.52;100.00
64292;BME280;50628;51.008;13.658;2024-01-10T05:08:31;101255.19;;;-11.47;100.00
64292;BME280;50628;51.008;13.658;2024-01-10T05:13:35;101255.41;;;-11.41;100.00
64292;BME280;50628;51.008;13.658;2024-01-10T05:18:37;101255.53;;;-11.37;100.00
64292;BME280;50628;51.008;13.658;2024-01-10T05:23:39;101254.75;;;-11.34;100.00
64292;BME280;50628;51.008;13.658;2024-01-10T05:28:43;101255.78;;;-11.29;100.00
64292;BME280;50628;51.008;13.658;2024-01-10T05:33:44;101255.53;;;-11.37;100.00
64292;BME280;50628;51.008;13.658;2024-01-10T05:38:46;101259.28;;;-11.24;100.00
64292;BME280;50628;51.008;13.658;2024-01-10T05:43:50;101258.41;;;-11.26;100.00
64292;BME280;50628;51.008;13.658;2024-01-10T05:48:51;101264.53;;;-11.18;100.00
64292;BME280;50628;51.008;13.658;2024-01-10T05:53:53;101264.94;;;-11.31;100.00
64292;BME280;50628;51.008;13.658;2024-01-10T05:58:56;101252.00;;;-11.16;100.00
64292;BME280;50628;51.008;13.658;2024-01-10T06:03:58;101258.84;;;-11.12;100.00
64292;BME280;50628;51.008;13.658;2024-01-10T06:09:01;101256.00;;;-10.96;100.00
64292;BME280;50628;51.008;13.658;2024-01-10T06:14:05;101257.22;;;-11.10;100.00
64292;BME280;50628;51.008;13.658;2024-01-10T06:19:06;101260.03;;;-11.26;100.00
64292;BME280;50628;51.008;13.658;2024-01-10T06:24:09;101258.50;;;-11.23;100.00
64292;BME280;50628;51.008;13.658;2024-01-10T06:29:12;101264.25;;;-11.00;100.00
64292;BME280;50628;51.008;13.658;2024-01-10T06:34:14;101264.34;;;-10.97;100.00
64292;BME280;50628;51.008;13.658;2024-01-10T06:39:16;101263.19;;;-11.06;100.00
64292;BME280;50628;51.008;13.658;2024-01-10T06:44:21;101265.13;;;-11.25;100.00
64292;BME280;50628;51.008;13.658;2024-01-10T06:49:23;101261.34;;;-11.12;100.00
64292;BME280;50628;51.008;13.658;2024-01-10T06:54:25;101267.19;;;-11.13;100.00
64292;BME280;50628;51.008;13.658;2024-01-10T06:59:28;101267.44;;;-11.05;100.00
64292;BME280;50628;51.008;13.658;2024-01-10T07:04:30;101273.38;;;-11.03;100.00
64292;BME280;50628;51.008;13.658;2024-01-10T07:09:32;101277.50;;;-11.05;100.00
64292;BME280;50628;51.008;13.658;2024-01-10T07:14:36;101272.28;;;-10.84;100.00
64292;BME280;50628;51.008;13.658;2024-01-10T07:19:38;101267.09;;;-10.89;100.00
64292;BME280;50628;51.008;13.658;2024-01-10T07:24:41;101258.16;;;-10.79;100.00
64292;BME280;50628;51.008;13.658;2024-01-10T07:29:44;101254.81;;;-10.80;100.00
64292;BME280;50628;51.008;13.658;2024-01-10T07:34:46;101258.16;;;-10.79;100.00
64292;BME280;50628;51.008;13.658;2024-01-10T07:39:48;101262.34;;;-10.80;100.00
64292;BME280;50628;51.008;13.658;2024-01-10T07:44:52;101258.41;;;-10.72;100.00
64292;BME280;50628;51.008;13.658;2024-01-10T07:49:54;101271.81;;;-10.71;100.00
64292;BME280;50628;51.008;13.658;2024-01-10T07:54:56;101271.88;;;-10.70;100.00
64292;BME280;50628;51.008;13.658;2024-01-10T08:00:00;101255.41;;;-10.60;100.00
64292;BME280;50628;51.008;13.658;2024-01-10T08:05:09;101258.94;;;-10.53;100.00
64292;BME280;50628;51.008;13.658;2024-01-10T08:10:11;101264.41;;;-10.39;100.00
64292;BME280;50628;51.008;13.658;2024-01-10T08:15:15;101258.84;;;-10.26;100.00
64292;BME280;50628;51.008;13.658;2024-01-10T08:20:17;101256.41;;;-10.23;100.00
64292;BME280;50628;51.008;13.658;2024-01-10T08:25:21;101252.75;;;-10.04;100.00
64292;BME280;50628;51.008;13.658;2024-01-10T08:30:24;101250.88;;;-9.81;100.00
64292;BME280;50628;51.008;13.658;2024-01-10T08:35:26;101245.31;;;-9.68;100.00
64292;BME280;50628;51.008;13.658;2024-01-10T08:40:28;101249.38;;;-9.41;100.00
64292;BME280;50628;51.008;13.658;2024-01-10T08:45:31;101241.41;;;-9.23;100.00
64292;BME280;50628;51.008;13.658;2024-01-10T08:50:33;101248.72;;;-8.99;100.00
64292;BME280;50628;51.008;13.658;2024-01-10T08:55:35;101248.38;;;-8.77;100.00
64292;BME280;50628;51.008;13.658;2024-01-10T09:00:39;101235.88;;;-8.71;100.00
64292;BME280;50628;51.008;13.658;2024-01-10T09:05:40;101238.09;;;-8.45;100.00
64292;BME280;50628;51.008;13.658;2024-01-10T09:10:43;101243.81;;;-8.11;100.00
64292;BME280;50628;51.008;13.658;2024-01-10T09:15:46;101231.53;;;-7.91;100.00
64292;BME280;50628;51.008;13.658;2024-01-10T09:20:48;101225.78;;;-7.84;100.00
64292;BME280;50628;51.008;13.658;2024-01-10T09:25:50;101238.91;;;-7.58;100.00
64292;BME280;50628;51.008;13.658;2024-01-10T09:30:53;101225.91;;;-7.29;100.00
64292;BME280;50628;51.008;13.658;2024-01-10T09:35:55;101223.84;;;-6.99;100.00
64292;BME280;50628;51.008;13.658;2024-01-10T09:40:59;101229.22;;;-6.76;100.00
64292;BME280;50628;51.008;13.658;2024-01-10T09:46:06;101225.44;;;-6.43;100.00
64292;BME280;50628;51.008;13.658;2024-01-10T09:51:11;101224.06;;;-6.19;100.00
64292;BME280;50628;51.008;13.658;2024-01-10T09:56:14;101207.34;;;-6.02;100.00
64292;BME280;50628;51.008;13.658;2024-01-10T10:01:18;101203.41;;;-5.71;100.00
64292;BME280;50628;51.008;13.658;2024-01-10T10:06:21;101194.13;;;-5.67;100.00
64292;BME280;50628;51.008;13.658;2024-01-10T10:11:23;101192.44;;;-5.65;100.00
64292;BME280;50628;51.008;13.658;2024-01-10T10:16:26;101186.91;;;-5.18;100.00
64292;BME280;50628;51.008;13.658;2024-01-10T10:21:28;101187.94;;;-4.90;100.00
64292;BME280;50628;51.008;13.658;2024-01-10T10:26:32;101188.06;;;-4.64;100.00
64292;BME280;50628;51.008;13.658;2024-01-10T10:31:36;101170.38;;;-4.44;100.00
64292;BME280;50628;51.008;13.658;2024-01-10T10:36:38;101173.84;;;-4.22;100.00
64292;BME280;50628;51.008;13.658;2024-01-10T10:41:40;101172.22;;;-3.94;100.00
64292;BME280;50628;51.008;13.658;2024-01-10T10:46:45;101173.09;;;-3.72;100.00
64292;BME280;50628;51.008;13.658;2024-01-10T10:51:49;101168.88;;;-3.14;100.00
64292;BME280;50628;51.008;13.658;2024-01-10T10:56:53;101162.81;;;-2.73;100.00
64292;BME280;50628;51.008;13.658;2024-01-10T11:01:58;101166.06;;;-2.37;100.00
64292;BME280;50628;51.008;13.658;2024-01-10T11:07:00;101161.03;;;-2.53;100.00
64292;BME280;50628;51.008;13.658;2024-01-10T11:12:16;101160.13;;;-2.40;100.00
64292;BME280;50628;51.008;13.658;2024-01-10T11:17:42;101168.69;;;-2.51;100.00
64292;BME280;50628;51.008;13.658;2024-01-10T11:23:03;101163.38;;;-2.08;100.00
64292;BME280;50628;51.008;13.658;2024-01-10T11:28:12;101156.72;;;-2.37;100.00
64292;BME280;50628;51.008;13.658;2024-01-10T11:33:20;101147.66;;;-1.48;100.00
64292;BME280;50628;51.008;13.658;2024-01-10T11:38:23;101140.72;;;-1.37;100.00
64292;BME280;50628;51.008;13.658;2024-01-10T11:43:24;101141.94;;;-0.87;100.00
64292;BME280;50628;51.008;13.658;2024-01-10T11:48:28;101137.38;;;-0.60;100.00
64292;BME280;50628;51.008;13.658;2024-01-10T11:53:40;101135.22;;;-0.97;100.00
64292;BME280;50628;51.008;13.658;2024-01-10T11:58:55;101126.59;;;-0.89;100.00
64292;BME280;50628;51.008;13.658;2024-01-10T12:04:04;101123.53;;;-0.46;100.00
64292;BME280;50628;51.008;13.658;2024-01-10T12:09:06;101123.88;;;-0.70;100.00
64292;BME280;50628;51.008;13.658;2024-01-10T12:14:09;101113.81;;;-0.19;100.00
64292;BME280;50628;51.008;13.658;2024-01-10T12:19:13;101119.16;;;0.21;100.00
64292;BME280;50628;51.008;13.658;2024-01-10T12:24:15;101109.69;;;-0.31;100.00
64292;BME280;50628;51.008;13.658;2024-01-10T12:29:18;101113.84;;;-0.22;100.00
64292;BME280;50628;51.008;13.658;2024-01-10T12:34:22;101111.59;;;0.15;100.00
64292;BME280;50628;51.008;13.658;2024-01-10T12:39:24;101108.16;;;0.15;100.00
64292;BME280;50628;51.008;13.658;2024-01-10T12:44:31;101106.31;;;0.25;100.00
64292;BME280;50628;51.008;13.658;2024-01-10T12:49:35;101092.97;;;0.55;100.00
64292;BME280;50628;51.008;13.658;2024-01-10T12:54:38;101089.88;;;1.29;100.00
64292;BME280;50628;51.008;13.658;2024-01-10T12:59:40;101083.63;;;1.82;100.00
64292;BME280;50628;51.008;13.658;2024-01-10T13:04:43;101090.59;;;1.75;100.00
64292;BME280;50628;51.008;13.658;2024-01-10T13:09:45;101086.84;;;1.90;100.00
64292;BME280;50628;51.008;13.658;2024-01-10T13:14:47;101094.09;;;2.10;100.00
64292;BME280;50628;51.008;13.658;2024-01-10T13:19:50;101090.72;;;2.42;100.00
64292;BME280;50628;51.008;13.658;2024-01-10T13:24:54;101089.41;;;1.90;100.00
64292;BME280;50628;51.008;13.658;2024-01-10T13:29:56;101083.97;;;1.66;100.00
64292;BME280;50628;51.008;13.658;2024-01-10T13:34:59;101088.94;;;2.10;100.00
64292;BME280;50628;51.008;13.658;2024-01-10T13:40:02;101079.06;;;2.94;95.64
64292;BME280;50628;51.008;13.658;2024-01-10T13:45:06;101086.84;;;3.52;91.98
64292;BME280;50628;51.008;13.658;2024-01-10T13:50:12;101088.22;;;3.90;84.61
64292;BME280;50628;51.008;13.658;2024-01-10T13:55:14;101081.47;;;4.41;81.50
64292;BME280;50628;51.008;13.658;2024-01-10T14:00:18;101085.03;;;4.10;78.20
64292;BME280;50628;51.008;13.658;2024-01-10T14:05:22;101088.47;;;4.11;76.32
64292;BME280;50628;51.008;13.658;2024-01-10T14:10:24;101078.66;;;4.21;79.03
64292;BME280;50628;51.008;13.658;2024-01-10T14:15:26;101076.78;;;5.25;68.51
64292;BME280;50628;51.008;13.658;2024-01-10T14:20:29;101073.16;;;5.98;71.17
64292;BME280;50628;51.008;13.658;2024-01-10T14:25:31;101080.75;;;5.79;67.27
64292;BME280;50628;51.008;13.658;2024-01-10T14:30:33;101079.94;;;6.00;63.12
64292;BME280;50628;51.008;13.658;2024-01-10T14:35:36;101072.75;;;4.94;66.98
64292;BME280;50628;51.008;13.658;2024-01-10T14:40:38;101079.88;;;4.37;73.39
64292;BME280;50628;51.008;13.658;2024-01-10T14:45:40;101084.03;;;4.91;78.79
64292;BME280;50628;51.008;13.658;2024-01-10T14:50:43;101081.41;;;4.68;83.28
64292;BME280;50628;51.008;13.658;2024-01-10T14:55:45;101079.53;;;3.09;100.00
64292;BME280;50628;51.008;13.658;2024-01-10T15:00:47;101088.31;;;1.63;100.00
64292;BME280;50628;51.008;13.658;2024-01-10T15:05:51;101096.63;;;0.90;100.00
64292;BME280;50628;51.008;13.658;2024-01-10T15:10:53;101091.59;;;0.37;100.00
64292;BME280;50628;51.008;13.658;2024-01-10T15:15:56;101099.88;;;-0.01;100.00
64292;BME280;50628;51.008;13.658;2024-01-10T15:20:59;101098.56;;;-0.28;100.00
64292;BME280;50628;51.008;13.658;2024-01-10T15:26:01;101098.28;;;-0.72;100.00
64292;BME280;50628;51.008;13.658;2024-01-10T15:31:03;101102.00;;;-0.96;100.00
64292;BME280;50628;51.008;13.658;2024-01-10T15:36:07;101109.22;;;-1.33;100.00
64292;BME280;50628;51.008;13.658;2024-01-10T15:41:09;101107.53;;;-1.37;100.00
64292;BME280;50628;51.008;13.658;2024-01-10T15:46:17;101112.91;;;-1.68;100.00
64292;BME280;50628;51.008;13.658;2024-01-10T15:51:21;101115.69;;;-1.96;100.00
64292;BME280;50628;51.008;13.658;2024-01-10T15:56:23;101120.84;;;-2.03;100.00
64292;BME280;50628;51.008;13.658;2024-01-10T16:01:25;101119.19;;;-2.15;100.00
64292;BME280;50628;51.008;13.658;2024-01-10T16:06:28;101110.91;;;-2.49;100.00
64292;BME280;50628;51.008;13.658;2024-01-10T16:11:30;101114.38;;;-2.64;100.00
64292;BME280;50628;51.008;13.658;2024-01-10T16:16:32;101116.06;;;-2.66;100.00
64292;BME280;50628;51.008;13.658;2024-01-10T16:21:37;101110.13;;;-2.62;100.00
64292;BME280;50628;51.008;13.658;2024-01-10T16:26:39;101111.84;;;-2.69;100.00
64292;BME280;50628;51.008;13.658;2024-01-10T16:31:40;101117.84;;;-2.87;100.00
64292;BME280;50628;51.008;13.658;2024-01-10T16:36:44;101115.38;;;-3.20;100.00
64292;BME280;50628;51.008;13.658;2024-01-10T16:41:46;101112.84;;;-3.28;100.00
64292;BME280;50628;51.008;13.658;2024-01-10T16:46:48;101111.16;;;-3.17;100.00
64292;BME280;50628;51.008;13.658;2024-01-10T16:51:51;101116.22;;;-3.18;100.00
64292;BME280;50628;51.008;13.658;2024-01-10T16:56:53;101113.69;;;-3.31;100.00
64292;BME280;50628;51.008;13.658;2024-01-10T17:01:55;101118.78;;;-3.21;100.00
64292;BME280;50628;51.008;13.658;2024-01-10T17:06:58;101117.97;;;-3.37;100.00
64292;BME280;50628;51.008;13.658;2024-01-10T17:12:00;101118.00;;;-3.65;100.00
64292;BME280;50628;51.008;13.658;2024-01-10T17:17:02;101122.22;;;-3.85;100.00
64292;BME280;50628;51.008;13.658;2024-01-10T17:22:06;101111.19;;;-3.81;100.00
64292;BME280;50628;51.008;13.658;2024-01-10T17:27:08;101115.44;;;-3.85;100.00
64292;BME280;50628;51.008;13.658;2024-01-10T17:32:09;101121.38;;;-3.95;100.00
64292;BME280;50628;51.008;13.658;2024-01-10T17:37:13;101121.31;;;-4.21;100.00
64292;BME280;50628;51.008;13.658;2024-01-10T17:42:16;101114.53;;;-4.24;100.00
64292;BME280;50628;51.008;13.658;2024-01-10T17:47:18;101122.09;;;-4.44;100.00
64292;BME280;50628;51.008;13.658;2024-01-10T17:52:21;101120.34;;;-4.62;100.00
64292;BME280;50628;51.008;13.658;2024-01-10T17:57:23;101119.56;;;-4.39;100.00
64292;BME280;50628;51.008;13.658;2024-01-10T18:02:27;101113.63;;;-4.47;100.00
64292;BME280;50628;51.008;13.658;2024-01-10T18:07:30;101111.88;;;-4.68;100.00
64292;BME280;50628;51.008;13.658;2024-01-10T18:12:32;101124.56;;;-4.67;100.00
64292;BME280;50628;51.008;13.658;2024-01-10T18:17:36;101109.22;;;-4.93;100.00
64292;BME280;50628;51.008;13.658;2024-01-10T18:22:40;101105.81;;;-4.95;100.00
64292;BME280;50628;51.008;13.658;2024-01-10T18:27:42;101105.81;;;-4.98;100.00
64292;BME280;50628;51.008;13.658;2024-01-10T18:32:43;101106.66;;;-5.01;100.00
64292;BME280;50628;51.008;13.658;2024-01-10T18:37:47;101120.91;;;-5.24;100.00
64292;BME280;50628;51.008;13.658;2024-01-10T18:42:49;101117.34;;;-5.45;100.00
64292;BME280;50628;51.008;13.658;2024-01-10T18:47:51;101130.19;;;-5.25;100.00
64292;BME280;50628;51.008;13.658;2024-01-10T18:52:54;101127.44;;;-5.55;100.00
64292;BME280;50628;51.008;13.658;2024-01-10T18:57:58;101123.16;;;-5.64;100.00
64292;BME280;50628;51.008;13.658;2024-01-10T19:03:00;101123.16;;;-5.62;100.00
64292;BME280;50628;51.008;13.658;2024-01-10T19:08:04;101131.47;;;-5.77;100.00
64292;BME280;50628;51.008;13.658;2024-01-10T19:13:06;101122.78;;;-6.08;100.00
64292;BME280;50628;51.008;13.658;2024-01-10T19:18:08;101127.25;;;-5.78;100.00
64292;BME280;50628;51.008;13.658;2024-01-10T19:23:11;101126.47;;;-5.70;100.00
64292;BME280;50628;51.008;13.658;2024-01-10T19:28:13;101115.28;;;-5.98;100.00
64292;BME280;50628;51.008;13.658;2024-01-10T19:33:15;101114.59;;;-5.77;100.00
64292;BME280;50628;51.008;13.658;2024-01-10T19:38:18;101120.47;;;-5.81;100.00
64292;BME280;50628;51.008;13.658;2024-01-10T19:43:23;101115.31;;;-5.96;100.00
64292;BME280;50628;51.008;13.658;2024-01-10T19:48:27;101111.94;;;-5.97;100.00
64292;BME280;50628;51.008;13.658;2024-01-10T19:53:30;101117.69;;;-6.12;100.00
64292;BME280;50628;51.008;13.658;2024-01-10T19:58:32;101122.72;;;-6.16;100.00
64292;BME280;50628;51.008;13.658;2024-01-10T20:03:34;101121.72;;;-6.31;100.00
64292;BME280;50628;51.008;13.658;2024-01-10T20:08:37;101123.31;;;-6.39;100.00
64292;BME280;50628;51.008;13.658;2024-01-10T20:13:39;101119.84;;;-6.50;100.00
64292;BME280;50628;51.008;13.658;2024-01-10T20:18:41;101129.25;;;-6.40;100.00
64292;BME280;50628;51.008;13.658;2024-01-10T20:23:45;101123.97;;;-6.57;100.00
64292;BME280;50628;51.008;13.658;2024-01-10T20:28:46;101123.88;;;-6.64;100.00
64292;BME280;50628;51.008;13.658;2024-01-10T20:33:48;101137.13;;;-6.85;100.00
64292;BME280;50628;51.008;13.658;2024-01-10T20:38:52;101145.97;;;-7.16;100.00
64292;BME280;50628;51.008;13.658;2024-01-10T20:43:53;101147.38;;;-6.78;100.00
64292;BME280;50628;51.008;13.658;2024-01-10T20:48:55;101143.09;;;-6.79;100.00
64292;BME280;50628;51.008;13.658;2024-01-10T20:54:00;101150.63;;;-6.83;100.00
64292;BME280;50628;51.008;13.658;2024-01-10T20:59:02;101159.56;;;-7.10;100.00
64292;BME280;50628;51.008;13.658;2024-01-10T21:04:04;101149.41;;;-7.13;100.00
64292;BME280;50628;51.008;13.658;2024-01-10T21:09:07;101158.88;;;-7.00;100.00
64292;BME280;50628;51.008;13.658;2024-01-10T21:14:09;101152.09;;;-7.02;100.00
64292;BME280;50628;51.008;13.658;2024-01-10T21:19:12;101157.13;;;-7.04;100.00
64292;BME280;50628;51.008;13.658;2024-01-10T21:24:15;101166.47;;;-6.98;100.00
64292;BME280;50628;51.008;13.658;2024-01-10T21:29:18;101162.91;;;-7.11;100.00
64292;BME280;50628;51.008;13.658;2024-01-10T21:34:20;101169.56;;;-7.19;100.00
64292;BME280;50628;51.008;13.658;2024-01-10T21:39:24;101165.72;;;-7.49;100.00
64292;BME280;50628;51.008;13.658;2024-01-10T21:44:26;101170.25;;;-7.81;100.00
64292;BME280;50628;51.008;13.658;2024-01-10T21:49:28;101173.34;;;-7.47;100.00
64292;BME280;50628;51.008;13.658;2024-01-10T21:54:31;101172.69;;;-7.35;100.00
64292;BME280;50628;51.008;13.658;2024-01-10T21:59:34;101183.66;;;-7.33;100.00
64292;BME280;50628;51.008;13.658;2024-01-10T22:04:36;101182.31;;;-7.65;100.00
64292;BME280;50628;51.008;13.658;2024-01-10T22:09:39;101197.06;;;-7.89;100.00
64292;BME280;50628;51.008;13.658;2024-01-10T22:14:41;101199.19;;;-7.65;100.00
64292;BME280;50628;51.008;13.658;2024-01-10T22:19:43;101192.53;;;-7.58;100.00
64292;BME280;50628;51.008;13.658;2024-01-10T22:24:46;101191.94;;;-7.44;100.00
64292;BME280;50628;51.008;13.658;2024-01-10T22:29:48;101198.34;;;-7.64;100.00
64292;BME280;50628;51.008;13.658;2024-01-10T22:34:50;101204.53;;;-7.95;100.00
64292;BME280;50628;51.008;13.658;2024-01-10T22:39:53;101202.59;;;-7.62;100.00
64292;BME280;50628;51.008;13.658;2024-01-10T22:44:55;101204.91;;;-7.75;100.00
64292;BME280;50628;51.008;13.658;2024-01-10T22:49:57;101187.22;;;-7.75;100.00
64292;BME280;50628;51.008;13.658;2024-01-10T22:55:01;101179.75;;;-7.68;100.00
64292;BME280;50628;51.008;13.658;2024-01-10T23:00:03;101183.94;;;-7.70;100.00
64292;BME280;50628;51.008;13.658;2024-01-10T23:05:09;101192.06;;;-7.86;100.00
64292;BME280;50628;51.008;13.658;2024-01-10T23:10:12;101198.50;;;-8.02;100.00
64292;BME280;50628;51.008;13.658;2024-01-10T23:15:14;101195.09;;;-8.04;100.00
64292;BME280;50628;51.008;13.658;2024-01-10T23:20:16;101177.75;;;-7.86;100.00
64292;BME280;50628;51.008;13.658;2024-01-10T23:25:19;101178.28;;;-8.03;100.00
64292;BME280;50628;51.008;13.658;2024-01-10T23:30:21;101172.44;;;-7.99;100.00
64292;BME280;50628;51.008;13.658;2024-01-10T23:35:23;101173.53;;;-8.75;100.00
64292;BME280;50628;51.008;13.658;2024-01-10T23:40:29;101176.56;;;-8.50;100.00
64292;BME280;50628;51.008;13.658;2024-01-10T23:45:31;101166.28;;;-8.15;100.00
64292;BME280;50628;51.008;13.658;2024-01-10T23:50:33;101168.31;;;-7.96;100.00
64292;BME280;50628;51.008;13.658;2024-01-10T23:55:36;101160.91;;;-7.85;100.00
